createdAt,value
2022-12-29T00:00:56.115Z,84.564209
2022-12-29T00:02:05.787Z,84.356689
2022-12-29T00:03:15.611Z,84.106445
2022-12-29T00:04:26.269Z,83.898926
2022-12-29T00:05:36.018Z,84.002686
2022-12-29T00:06:44.844Z,84.002686
2022-12-29T00:07:54.544Z,83.691406
2022-12-29T00:09:04.272Z,83.587646
2022-12-29T00:10:14.075Z,83.587646
2022-12-29T00:11:23.849Z,83.898926
2022-12-29T00:12:33.637Z,83.795166
2022-12-29T00:13:43.399Z,83.483887
2022-12-29T00:14:53.136Z,83.898926
2022-12-29T00:16:02.959Z,83.795166
2022-12-29T00:17:12.672Z,83.172607
2022-12-29T00:18:23.436Z,82.861328
2022-12-29T00:19:32.168Z,82.409668
2022-12-29T00:20:41.915Z,82.513428
2022-12-29T00:21:50.683Z,82.409668
2022-12-29T00:23:00.410Z,82.409668
2022-12-29T00:24:10.144Z,82.305908
2022-12-29T00:25:18.899Z,82.342529
2022-12-29T00:26:28.655Z,82.202148
2022-12-29T00:27:38.500Z,81.890869
2022-12-29T00:28:47.214Z,81.787109
2022-12-29T00:29:57.029Z,81.47583
2022-12-29T00:31:06.796Z,81.787109
2022-12-29T00:32:16.492Z,81.57959
2022-12-29T00:33:26.218Z,81.890869
2022-12-29T00:34:34.951Z,81.994629
2022-12-29T00:35:44.764Z,81.787109
2022-12-29T00:36:54.533Z,81.994629
2022-12-29T00:38:04.270Z,82.098389
2022-12-29T00:39:14.028Z,82.23877
2022-12-29T00:40:23.763Z,82.342529
2022-12-29T00:41:33.563Z,82.23877
2022-12-29T00:42:43.309Z,82.342529
2022-12-29T00:43:53.039Z,82.23877
2022-12-29T00:45:01.810Z,82.446289
2022-12-29T00:46:15.988Z,82.342529
2022-12-29T00:47:22.353Z,82.342529
2022-12-29T00:48:32.154Z,82.446289
2022-12-29T00:49:41.911Z,82.342529
2022-12-29T00:50:51.659Z,82.550049
2022-12-29T00:52:01.465Z,82.342529
2022-12-29T00:53:11.209Z,82.13501
2022-12-29T00:54:19.950Z,82.03125
2022-12-29T00:55:29.703Z,81.719971
2022-12-29T00:56:39.457Z,81.82373
2022-12-29T00:57:49.206Z,81.719971
2022-12-29T00:58:58.985Z,82.03125
2022-12-29T01:00:07.729Z,82.342529
2022-12-29T01:01:17.502Z,82.03125
2022-12-29T01:02:27.330Z,82.13501
2022-12-29T01:03:36.955Z,82.446289
2022-12-29T01:04:46.735Z,82.800293
2022-12-29T01:05:56.498Z,82.696533
2022-12-29T01:07:06.319Z,82.592773
2022-12-29T01:08:16.070Z,82.489014
2022-12-29T01:09:25.795Z,82.385254
2022-12-29T01:10:35.618Z,82.23877
2022-12-29T01:11:43.377Z,82.592773
2022-12-29T01:12:52.118Z,82.592773
2022-12-29T01:14:01.868Z,82.592773
2022-12-29T01:15:11.648Z,82.696533
2022-12-29T01:16:21.477Z,83.007812
2022-12-29T01:17:30.240Z,82.904053
2022-12-29T01:18:39.968Z,83.111572
2022-12-29T01:19:49.707Z,83.215332
2022-12-29T01:20:59.461Z,83.215332
2022-12-29T01:22:08.238Z,83.111572
2022-12-29T01:23:17.935Z,83.355713
2022-12-29T01:24:27.661Z,83.770752
2022-12-29T01:25:37.412Z,83.459473
2022-12-29T01:26:46.164Z,83.355713
2022-12-29T01:27:55.885Z,83.251953
2022-12-29T01:29:05.629Z,83.422852
2022-12-29T01:30:15.374Z,83.355713
2022-12-29T01:31:25.176Z,83.251953
2022-12-29T01:32:34.876Z,83.355713
2022-12-29T01:33:43.726Z,83.563232
2022-12-29T01:34:53.521Z,83.459473
2022-12-29T01:36:03.277Z,83.148193
2022-12-29T01:37:13.044Z,83.251953
2022-12-29T01:38:22.801Z,82.800293
2022-12-29T01:39:32.593Z,82.489014
2022-12-29T01:40:42.377Z,82.904053
2022-12-29T01:41:52.178Z,82.800293
2022-12-29T01:43:00.922Z,82.489014
2022-12-29T01:44:10.705Z,82.696533
2022-12-29T01:45:20.481Z,82.385254
2022-12-29T01:46:30.246Z,82.592773
2022-12-29T01:47:40.013Z,82.800293
2022-12-29T01:48:49.792Z,82.385254
2022-12-29T01:49:59.543Z,81.762695
2022-12-29T01:51:09.342Z,81.82373
2022-12-29T01:52:19.147Z,81.82373
2022-12-29T01:53:28.911Z,81.616211
2022-12-29T01:54:38.661Z,81.616211
2022-12-29T01:55:47.392Z,81.512451
2022-12-29T01:56:57.202Z,81.92749
2022-12-29T01:58:06.988Z,81.616211
2022-12-29T01:59:16.760Z,80.993652
2022-12-29T02:00:26.491Z,80.682373
2022-12-29T02:01:36.338Z,80.645752
2022-12-29T02:02:46.068Z,80.853271
2022-12-29T02:03:55.762Z,80.682373
2022-12-29T02:05:05.485Z,81.201172
2022-12-29T02:06:14.279Z,81.512451
2022-12-29T02:07:24.052Z,81.719971
2022-12-29T02:08:33.874Z,81.616211
2022-12-29T02:09:42.597Z,81.866455
2022-12-29T02:10:52.362Z,82.177734
2022-12-29T02:12:02.099Z,82.177734
2022-12-29T02:13:10.837Z,81.866455
2022-12-29T02:14:20.628Z,81.658936
2022-12-29T02:15:30.404Z,81.097412
2022-12-29T02:16:39.161Z,81.304932
2022-12-29T02:17:48.878Z,80.993652
2022-12-29T02:18:58.637Z,80.474854
2022-12-29T02:20:08.417Z,80.230713
2022-12-29T02:21:18.151Z,79.711914
2022-12-29T02:22:27.931Z,79.614258
2022-12-29T02:23:37.674Z,79.199219
2022-12-29T02:24:46.436Z,79.058838
2022-12-29T02:25:55.190Z,79.406738
2022-12-29T02:27:04.912Z,79.302979
2022-12-29T02:28:14.670Z,79.199219
2022-12-29T02:29:24.428Z,79.095459
2022-12-29T02:30:34.160Z,78.643799
2022-12-29T02:31:44.097Z,78.643799
2022-12-29T02:32:53.677Z,77.91748
2022-12-29T02:34:03.454Z,77.91748
2022-12-29T02:35:13.293Z,77.362061
2022-12-29T02:36:23.078Z,77.258301
2022-12-29T02:37:31.926Z,77.154541
2022-12-29T02:38:41.616Z,77.258301
2022-12-29T02:39:51.364Z,77.362061
2022-12-29T02:41:01.097Z,77.258301
2022-12-29T02:42:10.887Z,77.258301
2022-12-29T02:43:20.631Z,76.843262
2022-12-29T02:44:29.361Z,76.739502
2022-12-29T02:45:39.234Z,76.635742
2022-12-29T02:46:48.909Z,76.293945
2022-12-29T02:47:58.655Z,76.086426
2022-12-29T02:49:08.419Z,75.671387
2022-12-29T02:50:18.135Z,75.878906
2022-12-29T02:51:26.898Z,76.086426
2022-12-29T02:52:36.669Z,75.775146
2022-12-29T02:53:45.354Z,75.775146
2022-12-29T02:54:55.158Z,75.463867
2022-12-29T02:56:03.911Z,75.360107
2022-12-29T02:57:12.702Z,75.360107
2022-12-29T02:58:23.412Z,75.152588
2022-12-29T02:59:33.150Z,75.463867
2022-12-29T03:00:42.949Z,75.463867
2022-12-29T03:01:52.730Z,74.841309
2022-12-29T03:03:02.702Z,74.188232
2022-12-29T03:04:12.146Z,73.876953
2022-12-29T03:05:23.888Z,73.535156
2022-12-29T03:06:32.643Z,73.773193
2022-12-29T03:07:42.398Z,73.876953
2022-12-29T03:08:52.094Z,73.876953
2022-12-29T03:10:00.811Z,72.912598
2022-12-29T03:11:10.528Z,72.393799
2022-12-29T03:12:20.259Z,72.705078
2022-12-29T03:13:29.997Z,72.808838
2022-12-29T03:14:39.770Z,72.808838
2022-12-29T03:15:49.518Z,73.120117
2022-12-29T03:16:59.322Z,72.912598
2022-12-29T03:18:08.022Z,72.601318
2022-12-29T03:19:17.764Z,72.705078
2022-12-29T03:20:27.532Z,72.467041
2022-12-29T03:21:37.241Z,72.601318
2022-12-29T03:22:47.061Z,72.259521
2022-12-29T03:23:55.766Z,72.259521
2022-12-29T03:25:05.502Z,72.363281
2022-12-29T03:26:15.259Z,72.467041
2022-12-29T03:27:24.963Z,72.467041
2022-12-29T03:28:33.711Z,72.705078
2022-12-29T03:29:42.881Z,72.912598
2022-12-29T03:30:52.611Z,72.912598
2022-12-29T03:32:02.330Z,72.912598
2022-12-29T03:33:11.120Z,73.016357
2022-12-29T03:34:19.872Z,72.705078
2022-12-29T03:35:29.614Z,72.912598
2022-12-29T03:36:38.422Z,72.601318
2022-12-29T03:37:48.217Z,72.808838
2022-12-29T03:38:57.063Z,72.674561
2022-12-29T03:40:06.851Z,72.570801
2022-12-29T03:41:15.760Z,72.155762
2022-12-29T03:42:25.639Z,72.467041
2022-12-29T03:43:35.415Z,72.467041
2022-12-29T03:44:45.225Z,72.467041
2022-12-29T03:45:54.011Z,72.259521
2022-12-29T03:47:02.847Z,72.259521
2022-12-29T03:48:12.589Z,72.467041
2022-12-29T03:49:22.311Z,72.052002
2022-12-29T03:50:31.107Z,72.052002
2022-12-29T03:51:40.863Z,72.052002
2022-12-29T03:52:50.677Z,72.052002
2022-12-29T03:54:00.477Z,71.844482
2022-12-29T03:55:10.144Z,72.259521
2022-12-29T03:56:19.877Z,71.844482
2022-12-29T03:57:28.639Z,72.155762
2022-12-29T03:58:36.522Z,72.259521
2022-12-29T03:59:46.286Z,72.363281
2022-12-29T04:00:56.030Z,71.948242
2022-12-29T04:02:05.855Z,71.844482
2022-12-29T04:03:15.582Z,71.606445
2022-12-29T04:04:25.262Z,71.606445
2022-12-29T04:05:35.006Z,71.606445
2022-12-29T04:06:44.800Z,71.398926
2022-12-29T04:07:54.629Z,71.606445
2022-12-29T04:09:04.468Z,71.191406
2022-12-29T04:10:14.282Z,71.295166
2022-12-29T04:11:27.153Z,71.710205
2022-12-29T04:12:34.760Z,71.502686
2022-12-29T04:13:43.553Z,71.606445
2022-12-29T04:14:53.348Z,71.295166
2022-12-29T04:16:03.329Z,71.264648
2022-12-29T04:17:13.069Z,71.160889
2022-12-29T04:18:23.879Z,70.64209
2022-12-29T04:19:33.743Z,70.43457
2022-12-29T04:20:43.524Z,70.330811
2022-12-29T04:21:52.335Z,70.330811
2022-12-29T04:23:03.044Z,70.300293
2022-12-29T04:24:12.787Z,69.781494
2022-12-29T04:25:23.587Z,69.989014
2022-12-29T04:26:33.312Z,69.885254
2022-12-29T04:27:43.158Z,69.781494
2022-12-29T04:28:51.963Z,70.196533
2022-12-29T04:30:01.670Z,70.507812
2022-12-29T04:31:10.618Z,70.819092
2022-12-29T04:32:20.350Z,70.611572
2022-12-29T04:33:30.176Z,70.404053
2022-12-29T04:34:39.970Z,70.196533
2022-12-29T04:35:49.751Z,70.507812
2022-12-29T04:36:59.549Z,70.611572
2022-12-29T04:38:09.315Z,70.404053
2022-12-29T04:39:19.128Z,70.611572
2022-12-29T04:40:28.832Z,70.611572
2022-12-29T04:41:38.551Z,70.507812
2022-12-29T04:42:49.267Z,70.611572
2022-12-29T04:43:59.029Z,70.916748
2022-12-29T04:45:08.780Z,71.020508
2022-12-29T04:46:18.517Z,70.715332
2022-12-29T04:47:28.195Z,70.715332
2022-12-29T04:48:37.988Z,70.916748
2022-12-29T04:49:47.797Z,70.611572
2022-12-29T04:50:57.596Z,69.885254
2022-12-29T04:52:07.333Z,69.854736
2022-12-29T04:53:17.060Z,69.439697
2022-12-29T04:54:26.798Z,69.854736
2022-12-29T04:55:36.534Z,69.750977
2022-12-29T04:56:46.284Z,69.342041
2022-12-29T04:57:56.041Z,69.439697
2022-12-29T04:59:05.769Z,69.342041
2022-12-29T05:00:15.506Z,69.854736
2022-12-29T05:01:25.310Z,69.854736
2022-12-29T05:02:35.166Z,69.647217
2022-12-29T05:03:44.818Z,70.269775
2022-12-29T05:04:54.472Z,69.958496
2022-12-29T05:06:04.191Z,70.166016
2022-12-29T05:07:13.943Z,70.471191
2022-12-29T05:08:27.940Z,70.471191
2022-12-29T05:09:32.408Z,70.166016
2022-12-29T05:10:42.085Z,69.750977
2022-12-29T05:11:50.757Z,69.854736
2022-12-29T05:12:59.479Z,70.062256
2022-12-29T05:14:09.246Z,70.166016
2022-12-29T05:15:19.990Z,69.543457
2022-12-29T05:16:29.817Z,69.512939
2022-12-29T05:17:38.724Z,69.30542
2022-12-29T05:18:48.469Z,69.512939
2022-12-29T05:19:58.241Z,69.30542
2022-12-29T05:21:07.964Z,69.0979
2022-12-29T05:22:16.705Z,69.0979
2022-12-29T05:23:26.410Z,69.720459
2022-12-29T05:24:36.201Z,69.20166
2022-12-29T05:25:45.923Z,69.20166
2022-12-29T05:26:54.635Z,68.688965
2022-12-29T05:28:04.355Z,68.585205
2022-12-29T05:29:14.090Z,68.377686
2022-12-29T05:30:23.787Z,68.792725
2022-12-29T05:31:33.615Z,68.688965
2022-12-29T05:32:43.230Z,68.585205
2022-12-29T05:33:52.966Z,68.139648
2022-12-29T05:35:02.668Z,68.859863
2022-12-29T05:36:12.373Z,69.20166
2022-12-29T05:37:23.108Z,68.585205
2022-12-29T05:38:32.807Z,69.720459
2022-12-29T05:39:42.552Z,69.20166
2022-12-29T05:40:52.257Z,69.824219
2022-12-29T05:42:00.974Z,69.616699
2022-12-29T05:43:09.790Z,69.720459
2022-12-29T05:44:19.460Z,69.854736
2022-12-29T05:45:29.129Z,70.471191
2022-12-29T05:46:38.823Z,70.471191
2022-12-29T05:47:47.505Z,70.782471
2022-12-29T05:48:57.207Z,69.512939
2022-12-29T05:50:07.937Z,69.512939
2022-12-29T05:51:17.716Z,69.40918
2022-12-29T05:52:27.428Z,69.512939
2022-12-29T05:53:36.150Z,70.129395
2022-12-29T05:54:45.950Z,69.927979
2022-12-29T05:55:55.679Z,70.129395
2022-12-29T05:57:05.428Z,69.512939
2022-12-29T05:58:14.146Z,69.40918
2022-12-29T05:59:23.835Z,69.720459
2022-12-29T06:00:33.596Z,69.40918
2022-12-29T06:01:42.448Z,69.927979
2022-12-29T06:02:52.241Z,69.616699
2022-12-29T06:04:01.886Z,69.30542
2022-12-29T06:05:11.532Z,69.512939
2022-12-29T06:06:20.326Z,69.824219
2022-12-29T06:07:30.033Z,70.031738
2022-12-29T06:08:39.798Z,70.129395
2022-12-29T06:09:49.522Z,69.824219
2022-12-29T06:10:59.201Z,69.512939
2022-12-29T06:12:07.985Z,69.512939
2022-12-29T06:13:17.761Z,69.720459
2022-12-29T06:14:27.484Z,69.720459
2022-12-29T06:15:36.216Z,70.129395
2022-12-29T06:16:44.950Z,70.544434
2022-12-29T06:17:54.667Z,70.751953
2022-12-29T06:19:04.423Z,70.574951
2022-12-29T06:20:14.135Z,70.782471
2022-12-29T06:21:22.868Z,70.782471
2022-12-29T06:22:31.558Z,71.09375
2022-12-29T06:23:41.260Z,70.98999
2022-12-29T06:24:49.932Z,70.88623
2022-12-29T06:25:59.676Z,71.19751
2022-12-29T06:27:09.389Z,71.09375
2022-12-29T06:28:18.128Z,71.405029
2022-12-29T06:29:27.832Z,71.30127
2022-12-29T06:30:37.573Z,71.19751
2022-12-29T06:31:47.444Z,70.88623
2022-12-29T06:32:57.022Z,70.678711
2022-12-29T06:34:08.229Z,70.269775
2022-12-29T06:35:14.493Z,70.336914
2022-12-29T06:36:24.222Z,70.855713
2022-12-29T06:37:33.959Z,70.678711
2022-12-29T06:38:42.708Z,70.678711
2022-12-29T06:39:52.493Z,70.031738
2022-12-29T06:41:02.267Z,70.031738
2022-12-29T06:42:12.103Z,69.927979
2022-12-29T06:43:21.970Z,70.031738
2022-12-29T06:44:31.715Z,70.129395
2022-12-29T06:45:41.572Z,69.824219
2022-12-29T06:46:50.231Z,70.129395
2022-12-29T06:47:59.949Z,70.336914
2022-12-29T06:49:08.681Z,70.544434
2022-12-29T06:50:17.412Z,71.264648
2022-12-29T06:51:27.116Z,71.472168
2022-12-29T06:52:35.875Z,70.88623
2022-12-29T06:53:44.627Z,71.783447
2022-12-29T06:54:54.386Z,72.436523
2022-12-29T06:56:03.064Z,72.332764
2022-12-29T06:57:12.742Z,70.959473
2022-12-29T06:58:23.451Z,70.336914
2022-12-29T06:59:33.206Z,71.063232
2022-12-29T07:00:43.060Z,70.440674
2022-12-29T07:01:53.135Z,69.720459
2022-12-29T07:03:01.856Z,69.171143
2022-12-29T07:04:11.422Z,69.378662
2022-12-29T07:05:21.178Z,69.586182
2022-12-29T07:06:30.010Z,68.963623
2022-12-29T07:07:39.868Z,69.274902
2022-12-29T07:08:49.747Z,68.963623
2022-12-29T07:09:59.489Z,69.482422
2022-12-29T07:11:09.220Z,69.067383
2022-12-29T07:12:18.989Z,69.067383
2022-12-29T07:13:28.804Z,69.378662
2022-12-29T07:14:42.841Z,68.859863
2022-12-29T07:15:47.400Z,68.658447
2022-12-29T07:16:56.201Z,68.963623
2022-12-29T07:18:05.870Z,69.274902
2022-12-29T07:19:15.645Z,69.482422
2022-12-29T07:20:27.119Z,68.762207
2022-12-29T07:21:34.548Z,68.347168
2022-12-29T07:22:44.353Z,68.109131
2022-12-29T07:23:53.095Z,68.621826
2022-12-29T07:25:01.908Z,69.067383
2022-12-29T07:26:10.585Z,68.554688
2022-12-29T07:27:20.272Z,69.171143
2022-12-29T07:28:28.952Z,69.067383
2022-12-29T07:29:36.728Z,68.859863
2022-12-29T07:30:46.532Z,68.963623
2022-12-29T07:31:56.262Z,69.274902
2022-12-29T07:33:03.955Z,69.689941
2022-12-29T07:34:13.719Z,69.067383
2022-12-29T07:35:23.399Z,68.658447
2022-12-29T07:36:34.753Z,68.762207
2022-12-29T07:37:42.805Z,68.963623
2022-12-29T07:38:51.544Z,68.859863
2022-12-29T07:40:01.271Z,68.554688
2022-12-29T07:41:12.003Z,68.859863
2022-12-29T07:42:20.706Z,68.658447
2022-12-29T07:43:30.434Z,68.658447
2022-12-29T07:44:40.374Z,68.859863
2022-12-29T07:45:50.214Z,68.762207
2022-12-29T07:46:59.997Z,68.762207
2022-12-29T07:48:09.809Z,68.450928
2022-12-29T07:49:19.601Z,68.621826
2022-12-29T07:50:29.492Z,68.212891
2022-12-29T07:51:37.255Z,67.901611
2022-12-29T07:52:46.991Z,68.005371
2022-12-29T07:53:56.751Z,67.700195
2022-12-29T07:55:05.659Z,67.700195
2022-12-29T07:56:15.404Z,67.388916
2022-12-29T07:57:29.780Z,67.388916
2022-12-29T07:58:35.782Z,67.700195
2022-12-29T07:59:43.537Z,67.596436
2022-12-29T08:00:53.310Z,67.901611
2022-12-29T08:02:03.321Z,67.901611
2022-12-29T08:03:11.917Z,67.797852
2022-12-29T08:04:21.817Z,67.767334
2022-12-29T08:05:31.565Z,67.767334
2022-12-29T08:06:41.292Z,67.120361
2022-12-29T08:07:51.089Z,67.016602
2022-12-29T08:09:04.229Z,67.224121
2022-12-29T08:10:10.605Z,66.986084
2022-12-29T08:11:20.439Z,66.265869
2022-12-29T08:12:30.202Z,65.95459
2022-12-29T08:13:40.121Z,66.131592
2022-12-29T08:14:50.023Z,65.722656
2022-12-29T08:15:58.874Z,65.722656
2022-12-29T08:17:08.706Z,65.795898
2022-12-29T08:18:18.443Z,65.484619
2022-12-29T08:19:27.184Z,65.795898
2022-12-29T08:20:36.948Z,65.893555
2022-12-29T08:21:46.733Z,65.692139
2022-12-29T08:22:56.438Z,65.692139
2022-12-29T08:24:05.230Z,65.795898
2022-12-29T08:25:15.042Z,65.454102
2022-12-29T08:26:24.760Z,65.484619
2022-12-29T08:27:34.504Z,65.484619
2022-12-29T08:28:43.226Z,65.893555
2022-12-29T08:29:53.084Z,65.795898
2022-12-29T08:31:02.863Z,65.997314
2022-12-29T08:32:11.532Z,65.795898
2022-12-29T08:33:20.265Z,65.997314
2022-12-29T08:34:29.994Z,65.380859
2022-12-29T08:35:39.734Z,65.484619
2022-12-29T08:36:49.507Z,65.588379
2022-12-29T08:37:58.235Z,65.2771
2022-12-29T08:39:07.971Z,65.380859
2022-12-29T08:40:17.703Z,65.2771
2022-12-29T08:41:27.447Z,65.2771
2022-12-29T08:42:37.254Z,65.380859
2022-12-29T08:43:47.022Z,64.660645
2022-12-29T08:44:56.802Z,65.17334
2022-12-29T08:46:06.536Z,65.142822
2022-12-29T08:47:16.266Z,65.142822
2022-12-29T08:48:25.995Z,64.428711
2022-12-29T08:49:35.761Z,64.221191
2022-12-29T08:50:44.482Z,64.294434
2022-12-29T08:51:53.259Z,63.983154
2022-12-29T08:53:03.032Z,63.677979
2022-12-29T08:54:12.825Z,63.781738
2022-12-29T08:55:22.573Z,63.269043
2022-12-29T08:56:31.293Z,63.165283
2022-12-29T08:57:41.026Z,63.470459
2022-12-29T08:58:50.781Z,63.781738
2022-12-29T09:00:00.601Z,64.086914
2022-12-29T09:01:10.353Z,63.781738
2022-12-29T09:02:24.191Z,63.574219
2022-12-29T09:04:40.468Z,63.781738
2022-12-29T09:05:50.179Z,63.677979
2022-12-29T09:07:00.881Z,64.086914
2022-12-29T09:08:10.640Z,63.677979
2022-12-29T09:09:20.366Z,63.366699
2022-12-29T09:10:30.085Z,63.366699
2022-12-29T09:11:38.870Z,63.439941
2022-12-29T09:12:48.634Z,63.134766
2022-12-29T09:13:58.391Z,63.238525
2022-12-29T09:15:08.155Z,63.031006
2022-12-29T09:16:17.923Z,63.342285
2022-12-29T09:17:26.611Z,63.238525
2022-12-29T09:18:36.432Z,62.82959
2022-12-29T09:19:46.181Z,62.902832
2022-12-29T09:20:55.907Z,62.695312
2022-12-29T09:22:05.611Z,62.359619
2022-12-29T09:23:15.395Z,62.463379
2022-12-29T09:24:25.152Z,62.463379
2022-12-29T09:25:34.884Z,61.950684
2022-12-29T09:26:47.038Z,61.920166
2022-12-29T09:27:54.387Z,61.407471
2022-12-29T09:29:03.083Z,61.712646
2022-12-29T09:30:12.877Z,62.023926
2022-12-29T09:31:22.639Z,61.51123
2022-12-29T09:32:33.927Z,61.920166
2022-12-29T09:33:43.039Z,61.407471
2022-12-29T09:34:51.773Z,61.920166
2022-12-29T09:36:00.459Z,61.608887
2022-12-29T09:37:10.118Z,61.920166
2022-12-29T09:38:18.797Z,61.889648
2022-12-29T09:39:28.550Z,61.688232
2022-12-29T09:40:38.325Z,61.303711
2022-12-29T09:41:48.112Z,61.51123
2022-12-29T09:42:57.858Z,61.785889
2022-12-29T09:44:07.684Z,61.480713
2022-12-29T09:45:18.594Z,61.04126
2022-12-29T09:46:28.498Z,60.632324
2022-12-29T09:47:38.172Z,60.095215
2022-12-29T09:48:47.878Z,59.857178
2022-12-29T09:49:56.651Z,59.857178
2022-12-29T09:51:06.404Z,59.527588
2022-12-29T09:52:16.738Z,59.350586
2022-12-29T09:53:26.463Z,59.246826
2022-12-29T09:54:35.199Z,59.143066
2022-12-29T09:55:44.869Z,59.448242
2022-12-29T09:56:53.521Z,59.759521
2022-12-29T09:58:01.214Z,59.857178
2022-12-29T09:59:09.887Z,60.064697
2022-12-29T10:00:18.546Z,59.857178
2022-12-29T10:01:28.412Z,60.369873
2022-12-29T10:02:37.072Z,60.266113
2022-12-29T10:03:44.559Z,60.577393
2022-12-29T10:04:54.234Z,58.734131
2022-12-29T10:06:03.032Z,59.448242
2022-12-29T10:07:29.429Z,60.168457
2022-12-29T10:08:23.516Z,59.759521
2022-12-29T10:09:33.288Z,58.526611
2022-12-29T10:10:43.022Z,58.502197
2022-12-29T10:11:51.814Z,58.605957
2022-12-29T10:13:00.519Z,57.37915
2022-12-29T10:14:13.979Z,57.37915
2022-12-29T10:15:20.990Z,56.866455
2022-12-29T10:16:30.865Z,56.152344
2022-12-29T10:17:40.494Z,56.45752
2022-12-29T10:18:50.240Z,56.634521
2022-12-29T10:19:59.988Z,55.712891
2022-12-29T10:21:09.781Z,56.433105
2022-12-29T10:22:19.492Z,55.511475
2022-12-29T10:23:29.261Z,55.92041
2022-12-29T10:24:37.952Z,55.712891
2022-12-29T10:25:46.609Z,55.206299
2022-12-29T10:26:56.342Z,54.486084
2022-12-29T10:28:06.031Z,54.797363
2022-12-29T10:29:15.746Z,55.615234
2022-12-29T10:30:25.585Z,54.870605
2022-12-29T10:31:35.369Z,55.487061
2022-12-29T10:32:45.057Z,54.156494
2022-12-29T10:33:54.742Z,53.442383
2022-12-29T10:35:03.440Z,53.540039
2022-12-29T10:36:13.226Z,54.541016
2022-12-29T10:37:23.843Z,54.949951
2022-12-29T10:38:33.657Z,53.948975
2022-12-29T10:39:41.407Z,53.723145
2022-12-29T10:40:51.154Z,53.619385
2022-12-29T10:42:01.292Z,52.801514
2022-12-29T10:43:11.151Z,53.314209
2022-12-29T10:44:21.871Z,53.515625
2022-12-29T10:45:30.678Z,52.600098
2022-12-29T10:46:40.385Z,52.801514
2022-12-29T10:47:51.226Z,53.009033
2022-12-29T10:48:58.978Z,53.009033
2022-12-29T10:50:07.759Z,53.210449
2022-12-29T10:51:17.481Z,53.387451
2022-12-29T10:52:27.215Z,53.289795
2022-12-29T10:53:36.155Z,53.082275
2022-12-29T10:54:45.844Z,52.7771
2022-12-29T10:55:54.503Z,52.471924
2022-12-29T10:57:04.188Z,52.55127
2022-12-29T10:58:12.971Z,52.44751
2022-12-29T10:59:21.674Z,52.752686
2022-12-29T11:00:31.398Z,52.246094
2022-12-29T11:01:41.345Z,51.629639
2022-12-29T11:02:50.962Z,51.428223
2022-12-29T11:04:00.578Z,51.708984
2022-12-29T11:05:09.243Z,50.994873
2022-12-29T11:06:18.968Z,51.098633
2022-12-29T11:07:28.797Z,51.78833
2022-12-29T11:08:37.555Z,51.275635
2022-12-29T11:09:47.270Z,51.153564
2022-12-29T11:10:57.021Z,50.537109
2022-12-29T11:12:06.770Z,49.804688
2022-12-29T11:13:16.561Z,50.518799
2022-12-29T11:14:26.293Z,50.286865
2022-12-29T11:15:36.049Z,49.780273
2022-12-29T11:16:45.845Z,50.085449
2022-12-29T11:17:54.533Z,50.085449
2022-12-29T11:19:04.323Z,49.371338
2022-12-29T11:20:14.046Z,48.33374
2022-12-29T11:21:22.782Z,48.944092
2022-12-29T11:22:31.577Z,49.249268
2022-12-29T11:23:41.349Z,49.121094
2022-12-29T11:24:51.196Z,48.614502
2022-12-29T11:26:01.010Z,48.797607
2022-12-29T11:27:10.706Z,47.857666
2022-12-29T11:28:20.429Z,47.753906
2022-12-29T11:29:29.146Z,47.44873
2022-12-29T11:30:38.953Z,47.045898
2022-12-29T11:31:47.773Z,47.125244
2022-12-29T11:32:57.413Z,46.838379
2022-12-29T11:34:07.281Z,47.833252
2022-12-29T11:35:16.924Z,46.917725
2022-12-29T11:36:26.697Z,46.087646
2022-12-29T11:37:34.436Z,46.490479
2022-12-29T11:38:43.161Z,46.368408
2022-12-29T11:39:52.966Z,45.458984
2022-12-29T11:41:02.719Z,45.941162
2022-12-29T11:42:12.568Z,45.739746
2022-12-29T11:43:22.442Z,45.556641
2022-12-29T11:44:32.143Z,46.063232
2022-12-29T11:45:42.006Z,45.458984
2022-12-29T11:46:51.682Z,45.6604
2022-12-29T11:48:01.504Z,45.153809
2022-12-29T11:49:11.305Z,45.556641
2022-12-29T11:50:21.019Z,44.256592
2022-12-29T11:51:30.792Z,45.678711
2022-12-29T11:52:41.546Z,45.6604
2022-12-29T11:53:51.392Z,46.166992
2022-12-29T11:55:02.145Z,44.647217
2022-12-29T11:56:10.910Z,45.129395
2022-12-29T11:57:20.619Z,44.317627
2022-12-29T11:58:30.422Z,44.519043
2022-12-29T11:59:40.204Z,45.20874
2022-12-29T12:00:49.974Z,44.805908
2022-12-29T12:01:59.883Z,44.396973
2022-12-29T12:03:09.608Z,44.500732
2022-12-29T12:04:19.302Z,43.994141
2022-12-29T12:05:28.066Z,43.994141
2022-12-29T12:06:37.758Z,44.683838
2022-12-29T12:07:47.489Z,44.580078
2022-12-29T12:08:56.203Z,44.866943
2022-12-29T12:10:07.979Z,43.548584
2022-12-29T12:11:15.742Z,43.041992
2022-12-29T12:12:25.508Z,44.073486
2022-12-29T12:13:36.255Z,44.177246
2022-12-29T12:14:45.983Z,44.580078
2022-12-29T12:15:56.930Z,44.458008
2022-12-29T12:17:05.531Z,43.768311
2022-12-29T12:18:15.295Z,44.604492
2022-12-29T12:19:25.068Z,44.702148
2022-12-29T12:20:34.772Z,44.885254
2022-12-29T12:21:45.890Z,44.885254
2022-12-29T12:22:54.246Z,44.866943
2022-12-29T12:24:04.012Z,44.659424
2022-12-29T12:25:13.781Z,44.360352
2022-12-29T12:26:23.499Z,44.055176
2022-12-29T12:27:33.214Z,44.989014
2022-12-29T12:28:42.976Z,45.697021
2022-12-29T12:29:52.720Z,45.269775
2022-12-29T12:31:02.463Z,45.166016
2022-12-29T12:32:12.184Z,44.842529
2022-12-29T12:33:22.012Z,45.147705
2022-12-29T12:34:31.859Z,44.763184
2022-12-29T12:35:41.804Z,45.574951
2022-12-29T12:36:51.539Z,45.776367
2022-12-29T12:38:01.275Z,45.776367
2022-12-29T12:39:11.036Z,45.855713
2022-12-29T12:40:20.800Z,45.959473
2022-12-29T12:41:29.517Z,45.349121
2022-12-29T12:42:38.202Z,46.160889
2022-12-29T12:43:47.975Z,45.654297
2022-12-29T12:44:57.714Z,45.855713
2022-12-29T12:46:07.509Z,45.349121
2022-12-29T12:47:17.233Z,45.776367
2022-12-29T12:48:26.981Z,46.179199
2022-12-29T12:49:36.752Z,45.776367
2022-12-29T12:50:46.466Z,47.216797
2022-12-29T12:51:59.649Z,46.484375
2022-12-29T12:53:05.979Z,46.380615
2022-12-29T12:54:15.676Z,45.977783
2022-12-29T12:55:25.359Z,46.484375
2022-12-29T12:56:34.046Z,45.977783
2022-12-29T12:57:43.725Z,46.405029
2022-12-29T12:58:53.454Z,46.936035
2022-12-29T13:00:03.192Z,47.338867
2022-12-29T13:01:12.949Z,47.460938
2022-12-29T13:02:22.812Z,48.602295
2022-12-29T13:03:32.447Z,48.175049
2022-12-29T13:04:41.141Z,48.297119
2022-12-29T13:05:50.834Z,48.602295
2022-12-29T13:07:00.580Z,48.522949
2022-12-29T13:08:10.308Z,48.828125
2022-12-29T13:09:20.083Z,49.029541
2022-12-29T13:10:29.799Z,49.743652
2022-12-29T13:11:38.545Z,49.133301
2022-12-29T13:12:48.275Z,49.639893
2022-12-29T13:13:58.007Z,49.334717
2022-12-29T13:15:07.764Z,49.945068
2022-12-29T13:16:17.545Z,49.841309
2022-12-29T13:17:26.254Z,49.743652